Time;durP1;ratioP1;P1;durP2;ratioP2;P2;SDS_P1;SDS_P2;PMS_P1;PMS_P2;Temp;Humidity;BMP_temperature;BMP_pressure;BME280_temperature;BME280_humidity;BME280_pressure;Samples;Min_cycle;Max_cycle;Signal;HPM_P1;HPM_P2
2023/03/10 00:02:00;;;;;;;18.13;10.30;;;;;;;4.93;100.00;98649.72;4952177;28;20484;-75
2023/03/10 00:04:25;;;;;;;19.75;9.95;;;;;;;4.92;100.00;98650.72;4962274;28;20046;-75
2023/03/10 00:06:50;;;;;;;18.02;9.80;;;;;;;4.89;100.00;98649.13;4970692;28;20202;-75
2023/03/10 00:09:16;;;;;;;19.90;9.38;;;;;;;4.92;100.00;98651.56;4950839;28;20038;-75
2023/03/10 00:11:41;;;;;;;16.58;8.48;;;;;;;4.92;100.00;98654.28;4951197;29;20035;-76
2023/03/10 00:14:06;;;;;;;17.63;9.35;;;;;;;4.92;100.00;98651.56;4951951;29;20043;-75
2023/03/10 00:16:32;;;;;;;16.52;9.05;;;;;;;4.93;100.00;98657.81;4950004;28;20047;-76
2023/03/10 00:18:57;;;;;;;18.38;9.50;;;;;;;4.93;100.00;98657.81;4951820;28;20031;-76
2023/03/10 00:21:26;;;;;;;13.60;8.18;;;;;;;4.93;100.00;98650.59;4950365;29;20046;-76
2023/03/10 00:23:52;;;;;;;16.20;9.38;;;;;;;4.93;100.00;98649.72;4951560;29;20199;-75
2023/03/10 00:26:19;;;;;;;14.75;8.98;;;;;;;4.93;100.00;98639.81;4938805;29;20058;-76
2023/03/10 00:28:45;;;;;;;20.42;8.50;;;;;;;4.94;100.00;98640.66;4950850;28;20023;-75
2023/03/10 00:31:13;;;;;;;15.43;8.80;;;;;;;4.92;100.00;98635.41;4950898;28;20662;-75
2023/03/10 00:33:39;;;;;;;15.25;9.45;;;;;;;4.92;100.00;98639.94;4950707;28;20135;-75
2023/03/10 00:36:12;;;;;;;15.63;9.82;;;;;;;4.92;100.00;98635.41;4954241;28;20054;-76
2023/03/10 00:38:38;;;;;;;17.33;10.00;;;;;;;4.91;100.00;98633.72;4949124;29;20032;-76
2023/03/10 00:41:07;;;;;;;17.80;8.93;;;;;;;4.92;100.00;98643.50;4948732;29;20387;-75
2023/03/10 00:43:33;;;;;;;16.58;8.65;;;;;;;4.90;100.00;98645.47;4933730;29;20463;-75
2023/03/10 00:45:59;;;;;;;13.93;8.23;;;;;;;4.88;100.00;98639.34;4950972;28;20488;-75
2023/03/10 00:48:24;;;;;;;13.40;8.55;;;;;;;4.90;100.00;98640.09;4951278;28;20034;-75
2023/03/10 00:50:49;;;;;;;18.27;8.82;;;;;;;4.91;100.00;98643.63;4949612;29;20028;-75
2023/03/10 00:53:15;;;;;;;17.45;9.05;;;;;;;4.92;100.00;98642.63;4934222;29;20050;-75
2023/03/10 00:55:41;;;;;;;15.00;8.00;;;;;;;4.92;100.00;98642.63;4951067;29;20086;-75
2023/03/10 00:58:06;;;;;;;16.17;9.18;;;;;;;4.90;100.00;98647.31;4946656;28;20106;-76
2023/03/10 01:00:33;;;;;;;13.82;8.70;;;;;;;4.93;100.00;98649.72;4941771;28;20062;-76
2023/03/10 01:02:58;;;;;;;16.55;9.07;;;;;;;4.92;100.00;98645.34;4951018;28;20082;-76
2023/03/10 01:05:24;;;;;;;17.40;9.80;;;;;;;4.95;100.00;98648.63;4950230;28;20035;-75
2023/03/10 01:07:50;;;;;;;18.83;9.90;;;;;;;4.96;100.00;98644.09;4950802;29;20038;-75
2023/03/10 01:10:17;;;;;;;15.13;8.98;;;;;;;4.97;100.00;98648.50;4949174;29;20035;-76
2023/03/10 01:12:42;;;;;;;18.90;9.60;;;;;;;4.97;100.00;98643.97;4948999;28;20502;-75
2023/03/10 01:15:10;;;;;;;16.08;9.10;;;;;;;4.98;100.00;98637.56;4937317;29;20059;-76
2023/03/10 01:17:36;;;;;;;17.65;9.40;;;;;;;4.99;100.00;98633.91;4948929;28;20031;-76
2023/03/10 01:20:05;;;;;;;18.55;9.43;;;;;;;5.03;100.00;98629.09;4933863;29;20093;-76
2023/03/10 01:22:31;;;;;;;19.33;9.85;;;;;;;5.05;100.00;98625.31;4950982;29;20703;-76
2023/03/10 01:24:56;;;;;;;14.68;9.00;;;;;;;5.09;100.00;98631.28;4949257;29;20039;-76
2023/03/10 01:27:21;;;;;;;15.15;9.35;;;;;;;5.11;100.00;98616.69;4950351;28;20039;-76
2023/03/10 01:29:47;;;;;;;18.17;9.38;;;;;;;5.20;100.00;98617.75;4948713;28;20034;-76
2023/03/10 01:32:12;;;;;;;21.83;9.93;;;;;;;5.27;100.00;98621.63;4946681;28;20055;-76
2023/03/10 01:34:37;;;;;;;17.80;8.60;;;;;;;5.40;100.00;98618.69;4954300;29;20039;-76
2023/03/10 01:37:03;;;;;;;18.35;8.85;;;;;;;5.59;100.00;98612.56;4952768;29;20102;-76
2023/03/10 01:39:28;;;;;;;18.88;8.75;;;;;;;5.79;100.00;98608.13;4953029;28;20094;-75
2023/03/10 01:41:53;;;;;;;23.80;8.65;;;;;;;6.00;100.00;98608.91;4952734;28;20067;-76
2023/03/10 01:44:20;;;;;;;16.75;8.20;;;;;;;6.21;100.00;98610.69;4954079;28;20031;-76
2023/03/10 01:46:54;;;;;;;22.27;8.55;;;;;;;6.33;100.00;98604.16;4952640;28;20035;-76
2023/03/10 01:49:38;;;;;;;19.65;8.65;;;;;;;6.43;100.00;98601.47;4952420;28;20078;-76
2023/03/10 01:52:16;;;;;;;22.35;9.18;;;;;;;6.54;100.00;98593.25;4953952;29;20039;-76
2023/03/10 01:54:48;;;;;;;20.67;9.02;;;;;;;6.70;100.00;98585.44;4952635;28;20513;-75
2023/03/10 01:57:16;;;;;;;19.45;8.95;;;;;;;6.78;100.00;98590.97;4952450;28;20491;-76
2023/03/10 01:59:42;;;;;;;21.52;9.48;;;;;;;6.79;100.00;98598.06;4939668;28;20047;-76
2023/03/10 02:02:08;;;;;;;18.58;8.65;;;;;;;6.83;100.00;98590.53;4951465;29;20446;-76
2023/03/10 02:04:35;;;;;;;16.63;8.25;;;;;;;6.91;100.00;98590.69;4951459;29;20439;-76
2023/03/10 02:07:03;;;;;;;16.83;8.32;;;;;;;6.96;100.00;98590.25;4953985;29;20284;-76
2023/03/10 02:09:32;;;;;;;19.48;9.38;;;;;;;7.06;100.00;98600.06;4953196;28;20089;-76
2023/03/10 02:11:59;;;;;;;18.85;9.30;;;;;;;7.10;100.00;98597.94;4953704;29;20114;-76
2023/03/10 02:14:25;;;;;;;20.30;9.48;;;;;;;7.17;100.00;98599.03;4953499;28;20510;-76
2023/03/10 02:16:50;;;;;;;16.33;8.65;;;;;;;7.20;100.00;98595.19;4952230;28;20035;-76
2023/03/10 02:19:37;;;;;;;23.13;9.10;;;;;;;7.25;100.00;98604.56;4951041;29;20040;-76
2023/03/10 02:22:07;;;;;;;18.80;8.00;;;;;;;7.33;100.00;98595.75;4952399;29;20046;-76
2023/03/10 02:24:42;;;;;;;18.33;8.68;;;;;;;7.36;100.00;98574.66;4936244;29;20035;-76
2023/03/10 02:27:14;;;;;;;20.85;8.20;;;;;;;7.41;100.00;98575.09;4953048;28;20499;-76
2023/03/10 02:29:49;;;;;;;;;;;;;;;7.44;100.00;98573.06;4952052;28;20031;-76
2023/03/10 02:32:17;;;;;;;16.33;8.15;;;;;;;7.44;100.00;98563.09;4952687;28;19936;-76
2023/03/10 02:34:43;;;;;;;15.43;7.72;;;;;;;7.40;100.00;98558.97;4951783;28;20038;-76
2023/03/10 02:37:18;;;;;;;17.17;7.63;;;;;;;7.40;100.00;98554.41;4951735;29;20399;-76
2023/03/10 02:39:45;;;;;;;22.85;8.00;;;;;;;7.41;100.00;98558.84;4951818;28;20495;-76
2023/03/10 02:42:11;;;;;;;15.32;7.22;;;;;;;7.40;100.00;98551.72;4950121;28;20032;-76
2023/03/10 02:44:37;;;;;;;14.85;7.88;;;;;;;7.39;100.00;98550.03;4951488;28;20983;-76
2023/03/10 02:47:03;;;;;;;20.83;7.80;;;;;;;7.44;100.00;98546.88;4951412;28;20039;-76
2023/03/10 02:49:28;;;;;;;12.32;6.78;;;;;;;7.40;100.00;98534.63;4951777;28;20039;-76
2023/03/10 02:51:55;;;;;;;13.10;6.60;;;;;;;7.43;100.00;98534.34;4951557;29;20102;-76
2023/03/10 02:54:21;;;;;;;18.65;7.20;;;;;;;7.46;100.00;98547.59;4951889;29;20307;-76
2023/03/10 02:56:47;;;;;;;17.50;7.10;;;;;;;7.44;100.00;98540.63;4951158;28;20117;-76
2023/03/10 02:59:15;;;;;;;11.88;6.82;;;;;;;7.43;100.00;98538.91;4950467;29;20552;-76
2023/03/10 03:01:45;;;;;;;13.15;6.90;;;;;;;7.42;100.00;98532.66;4944513;29;20085;-76
2023/03/10 03:04:10;;;;;;;13.25;6.95;;;;;;;7.41;100.00;98536.34;4951079;28;20047;-76
2023/03/10 03:06:38;;;;;;;13.07;6.93;;;;;;;7.37;100.00;98521.44;4951362;29;20055;-76
2023/03/10 03:09:04;;;;;;;13.43;5.72;;;;;;;7.37;100.00;98525.00;4951222;28;20107;-75
2023/03/10 03:11:30;;;;;;;14.90;6.35;;;;;;;7.32;100.00;98523.69;4951180;28;20517;-76
2023/03/10 03:13:55;;;;;;;11.52;5.88;;;;;;;7.28;100.00;98517.75;4951620;29;20035;-75
2023/03/10 03:16:22;;;;;;;12.18;5.95;;;;;;;7.28;100.00;98523.16;4950772;28;20356;-76
2023/03/10 03:18:51;;;;;;;11.38;6.13;;;;;;;7.28;100.00;98519.63;4935592;29;20273;-76
2023/03/10 03:21:20;;;;;;;11.18;5.63;;;;;;;7.26;100.00;98521.59;4935130;29;20031;-76
2023/03/10 03:23:46;;;;;;;11.63;6.38;;;;;;;7.30;100.00;98525.72;4937041;29;20202;-76
2023/03/10 03:26:24;;;;;;;12.63;5.90;;;;;;;7.28;100.00;98520.47;4950968;29;20043;-76
2023/03/10 03:28:55;;;;;;;12.90;6.10;;;;;;;7.28;100.00;98517.75;4934860;29;20031;-76
2023/03/10 03:31:25;;;;;;;12.98;5.78;;;;;;;7.32;100.00;98515.59;4933788;28;20027;-75
2023/03/10 03:33:58;;;;;;;14.52;6.63;;;;;;;7.33;100.00;98509.19;4949716;29;20031;-76
2023/03/10 03:36:24;;;;;;;13.45;6.20;;;;;;;7.31;100.00;98520.16;4950775;29;20570;-76
2023/03/10 03:38:49;;;;;;;15.52;5.78;;;;;;;7.31;100.00;98514.75;4934882;29;20050;-75
2023/03/10 03:41:15;;;;;;;9.48;5.47;;;;;;;7.30;100.00;98520.31;4950487;29;20419;-75
2023/03/10 03:43:41;;;;;;;15.63;6.07;;;;;;;7.30;100.00;98517.59;4949611;29;20054;-76
2023/03/10 03:46:07;;;;;;;15.82;5.72;;;;;;;7.31;100.00;98514.75;4948410;29;20125;-76
2023/03/10 03:48:34;;;;;;;13.95;5.75;;;;;;;7.37;100.00;98513.31;4950396;28;20059;-76
2023/03/10 03:51:01;;;;;;;15.38;6.85;;;;;;;7.38;100.00;98506.91;4951168;29;20130;-76
2023/03/10 03:53:34;;;;;;;11.18;5.22;;;;;;;7.38;100.00;98512.31;4935161;29;20137;-76
2023/03/10 03:56:00;;;;;;;13.70;4.93;;;;;;;7.38;100.00;98504.19;4950960;29;20126;-76
2023/03/10 03:58:30;;;;;;;11.27;4.50;;;;;;;7.42;100.00;98505.59;4950315;28;20035;-76
2023/03/10 04:00:55;;;;;;;10.30;4.35;;;;;;;7.43;100.00;98501.91;4948979;28;20043;-77
2023/03/10 04:03:22;;;;;;;10.13;5.18;;;;;;;7.44;100.00;98503.59;4950065;28;20031;-76
2023/03/10 04:05:48;;;;;;;13.15;5.30;;;;;;;7.47;100.00;98497.91;4950461;29;20057;-77
2023/03/10 04:08:13;;;;;;;10.57;4.93;;;;;;;7.52;100.00;98502.84;4949010;29;20122;-76
2023/03/10 04:10:39;;;;;;;16.00;5.50;;;;;;;7.54;100.00;98495.44;4950035;29;20129;-76
2023/03/10 04:13:05;;;;;;;12.43;3.88;;;;;;;7.56;100.00;98501.56;4933938;28;20506;-76
2023/03/10 04:15:34;;;;;;;13.25;4.50;;;;;;;7.57;100.00;98493.28;4951118;28;20035;-76
2023/03/10 04:18:00;;;;;;;13.40;3.90;;;;;;;7.55;100.00;98494.41;4948537;29;20129;-76
2023/03/10 04:20:26;;;;;;;9.05;3.72;;;;;;;7.55;100.00;98494.41;4934184;29;20034;-76
2023/03/10 04:22:52;;;;;;;7.35;3.50;;;;;;;7.57;100.00;98501.41;4949748;29;20345;-76
2023/03/10 04:25:21;;;;;;;7.82;3.40;;;;;;;7.54;100.00;98490.00;4934228;29;20623;-76
2023/03/10 04:27:47;;;;;;;11.30;3.75;;;;;;;7.54;100.00;98493.56;4919326;29;20031;-76
2023/03/10 04:30:14;;;;;;;13.05;3.92;;;;;;;7.54;100.00;98485.44;4949491;28;20061;-76
2023/03/10 04:32:43;;;;;;;7.43;3.55;;;;;;;7.53;100.00;98496.44;4947099;28;20106;-76
2023/03/10 04:35:11;;;;;;;9.00;3.50;;;;;;;7.51;100.00;98490.34;4949495;28;20078;-76
2023/03/10 04:37:37;;;;;;;12.00;3.03;;;;;;;7.51;100.00;98493.03;4949628;29;20122;-76
2023/03/10 04:40:08;;;;;;;7.10;2.85;;;;;;;7.53;100.00;98486.47;4934516;28;20394;-76
2023/03/10 04:42:34;;;;;;;6.03;3.05;;;;;;;7.53;100.00;98478.34;4949531;29;20534;-76
2023/03/10 04:45:00;;;;;;;10.38;3.13;;;;;;;7.52;100.00;98489.31;4933680;29;20074;-77
2023/03/10 04:47:25;;;;;;;11.82;3.05;;;;;;;7.52;100.00;98473.94;4949553;28;20063;-76
2023/03/10 04:49:51;;;;;;;14.85;3.38;;;;;;;7.53;100.00;98475.63;4949706;29;20035;-76
2023/03/10 04:52:16;;;;;;;10.50;3.13;;;;;;;7.48;100.00;98480.66;4949392;29;20063;-76
2023/03/10 04:54:42;;;;;;;13.73;3.10;;;;;;;7.43;100.00;98482.09;4950707;29;20050;-76
2023/03/10 04:57:08;;;;;;;8.63;2.63;;;;;;;7.37;100.00;98480.84;4950676;28;20443;-76
2023/03/10 04:59:33;;;;;;;6.88;3.17;;;;;;;7.30;100.00;98475.19;4933040;28;20043;-76
2023/03/10 05:01:59;;;;;;;14.68;3.92;;;;;;;7.27;100.00;98470.06;4949742;28;20119;-76
2023/03/10 05:04:24;;;;;;;12.95;2.83;;;;;;;7.26;100.00;98464.81;4959674;28;20027;-76
2023/03/10 05:06:52;;;;;;;12.68;2.97;;;;;;;7.25;100.00;98473.94;4968517;28;20281;-77
2023/03/10 05:09:29;;;;;;;10.25;3.05;;;;;;;7.21;100.00;98467.97;4948910;29;20039;-76
2023/03/10 05:11:55;;;;;;;14.65;3.65;;;;;;;7.25;100.00;98466.66;4917692;29;20035;-76
2023/03/10 05:14:21;;;;;;;9.63;2.80;;;;;;;7.19;100.00;98471.81;4933339;28;20053;-76
2023/03/10 05:16:47;;;;;;;11.07;3.72;;;;;;;7.20;100.00;98468.97;4950922;28;20031;-76
2023/03/10 05:19:13;;;;;;;9.00;2.75;;;;;;;7.23;100.00;98470.50;4949120;28;20062;-76
2023/03/10 05:21:38;;;;;;;12.30;3.20;;;;;;;7.23;100.00;98463.25;4949025;28;20053;-77
2023/03/10 05:24:04;;;;;;;8.68;2.85;;;;;;;7.25;100.00;98466.66;4950753;29;20066;-76
2023/03/10 05:26:29;;;;;;;12.05;3.28;;;;;;;7.22;100.00;98464.25;4950785;29;20027;-76
2023/03/10 05:28:55;;;;;;;9.27;2.72;;;;;;;7.22;100.00;98469.66;4933875;29;20031;-76
2023/03/10 05:31:29;;;;;;;9.45;3.05;;;;;;;7.21;100.00;98467.09;4949693;28;20038;-76
2023/03/10 05:34:01;;;;;;;15.48;3.30;;;;;;;7.21;100.00;98469.81;4948566;29;20042;-76
2023/03/10 05:36:27;;;;;;;8.43;2.65;;;;;;;7.21;100.00;98478.78;4934168;29;20062;-76
2023/03/10 05:38:53;;;;;;;10.05;3.60;;;;;;;7.20;100.00;98474.38;4950234;29;20480;-77
2023/03/10 05:41:18;;;;;;;11.70;3.08;;;;;;;7.25;100.00;98474.78;4933019;29;20043;-76
2023/03/10 05:43:47;;;;;;;6.63;2.42;;;;;;;7.29;100.00;98480.75;4933664;29;20039;-76
2023/03/10 05:46:14;;;;;;;10.02;3.58;;;;;;;7.29;100.00;98478.03;4948680;28;20032;-76
2023/03/10 05:48:44;;;;;;;18.02;3.00;;;;;;;7.30;100.00;98482.44;4947941;29;20031;-76
2023/03/10 05:51:11;;;;;;;10.60;2.95;;;;;;;7.30;100.00;98479.75;4949060;28;20411;-77
2023/03/10 05:53:38;;;;;;;15.60;3.25;;;;;;;7.36;100.00;98482.69;4949367;29;20431;-77
2023/03/10 05:56:12;;;;;;;13.48;4.57;;;;;;;7.39;100.00;98474.28;4949079;29;20510;-77
2023/03/10 05:58:38;;;;;;;16.38;3.38;;;;;;;7.40;100.00;98473.28;4948500;28;20028;-76
2023/03/10 06:01:05;;;;;;;11.82;3.42;;;;;;;7.39;100.00;98471.56;4941796;28;20117;-77
2023/03/10 06:03:30;;;;;;;20.85;4.47;;;;;;;7.39;100.00;98473.44;4951148;28;20542;-77
2023/03/10 06:05:57;;;;;;;14.40;3.75;;;;;;;7.34;100.00;98473.88;4952462;28;20152;-77
2023/03/10 06:08:23;;;;;;;19.92;4.38;;;;;;;7.39;100.00;98482.41;4969700;28;20023;-77
2023/03/10 06:10:49;;;;;;;16.75;3.33;;;;;;;7.38;100.00;98483.41;4968168;28;20039;-77
2023/03/10 06:13:15;;;;;;;10.02;3.38;;;;;;;7.43;100.00;98490.22;4947793;29;20050;-78
2023/03/10 06:15:40;;;;;;;17.88;3.42;;;;;;;7.45;100.00;98480.09;4949779;28;20035;-77
2023/03/10 06:18:05;;;;;;;13.80;3.40;;;;;;;7.44;100.00;98483.81;4953488;28;20122;-77
2023/03/10 06:20:31;;;;;;;11.77;3.40;;;;;;;7.46;100.00;98487.19;4936678;29;20039;-77
2023/03/10 06:22:57;;;;;;;15.07;3.65;;;;;;;7.47;100.00;98483.53;4936269;29;20035;-77
2023/03/10 06:25:22;;;;;;;11.55;4.05;;;;;;;7.48;100.00;98486.06;4953641;29;20380;-76
2023/03/10 06:27:47;;;;;;;18.30;5.00;;;;;;;7.51;100.00;98493.03;4951830;28;20407;-77
2023/03/10 06:30:14;;;;;;;10.20;2.92;;;;;;;7.50;100.00;98496.72;4953042;28;20110;-77
2023/03/10 06:32:39;;;;;;;18.75;3.30;;;;;;;7.51;100.00;98493.03;4953099;28;20438;-77
2023/03/10 06:35:05;;;;;;;6.55;2.58;;;;;;;7.56;100.00;98493.44;4951914;29;20090;-77
2023/03/10 06:37:30;;;;;;;17.83;3.17;;;;;;;7.57;100.00;98496.00;4953734;28;20094;-77
2023/03/10 06:39:56;;;;;;;10.55;3.88;;;;;;;7.61;100.00;98502.81;4951904;29;20499;-77
2023/03/10 06:42:21;;;;;;;20.30;4.43;;;;;;;7.66;100.00;98503.19;4951633;28;20134;-77
2023/03/10 06:44:52;;;;;;;13.43;3.47;;;;;;;7.70;100.00;98501.06;4953316;28;20026;-77
2023/03/10 06:47:17;;;;;;;7.47;2.92;;;;;;;7.70;100.00;98497.50;4952941;28;20054;-76
2023/03/10 06:49:43;;;;;;;10.93;3.95;;;;;;;7.73;100.00;98499.88;4951380;29;20019;-76
2023/03/10 06:52:08;;;;;;;9.60;3.25;;;;;;;7.73;100.00;98503.44;4953102;29;20046;-76
2023/03/10 06:54:33;;;;;;;10.23;2.97;;;;;;;7.73;100.00;98494.47;4951637;29;20039;-76
2023/03/10 06:56:58;;;;;;;5.82;3.00;;;;;;;7.73;100.00;98491.75;4951204;28;20086;-76
2023/03/10 06:59:24;;;;;;;12.65;4.00;;;;;;;7.74;100.00;98497.06;4950975;29;20055;-76
2023/03/10 07:01:49;;;;;;;9.48;3.83;;;;;;;7.78;100.00;98500.28;4952579;28;20043;-76
2023/03/10 07:04:14;;;;;;;8.23;3.10;;;;;;;7.78;100.00;98500.28;4951126;28;20126;-76
2023/03/10 07:06:40;;;;;;;15.55;3.70;;;;;;;7.81;100.00;98502.69;4951435;29;20059;-76
2023/03/10 07:09:05;;;;;;;11.85;3.15;;;;;;;7.79;100.00;98499.31;4951665;29;20035;-76
2023/03/10 07:11:32;;;;;;;9.70;2.72;;;;;;;7.83;100.00;98506.09;4952992;28;20027;-76
2023/03/10 07:13:57;;;;;;;6.97;3.38;;;;;;;7.84;100.00;98502.41;4951819;29;20035;-76
2023/03/10 07:16:23;;;;;;;11.20;2.83;;;;;;;7.84;100.00;98503.25;4952235;28;20162;-76
2023/03/10 07:18:48;;;;;;;16.73;4.40;;;;;;;7.87;100.00;98508.34;4952143;28;20096;-76
2023/03/10 07:21:16;;;;;;;12.95;2.90;;;;;;;7.87;100.00;98510.19;4951151;29;20050;-76
2023/03/10 07:23:42;;;;;;;13.32;2.88;;;;;;;7.87;100.00;98516.47;4952102;28;20062;-77
2023/03/10 07:26:07;;;;;;;12.38;3.28;;;;;;;7.89;100.00;98510.91;4952557;28;20043;-76
2023/03/10 07:28:36;;;;;;;7.97;3.20;;;;;;;7.93;100.00;98515.03;4951284;28;20484;-76
2023/03/10 07:31:08;;;;;;;8.93;3.20;;;;;;;8.02;100.00;98521.38;4950532;28;20051;-76
2023/03/10 07:33:34;;;;;;;8.23;3.92;;;;;;;8.11;100.00;98525.88;4950404;28;20042;-76
2023/03/10 07:36:07;;;;;;;13.20;3.95;;;;;;;8.21;100.00;98513.13;4952646;28;20121;-76
2023/03/10 07:38:33;;;;;;;16.10;5.15;;;;;;;8.33;100.00;98528.13;4934598;29;20058;-76
2023/03/10 07:40:58;;;;;;;10.55;4.97;;;;;;;8.54;100.00;98527.03;4952520;29;20491;-76
2023/03/10 07:43:23;;;;;;;16.27;5.57;;;;;;;8.86;100.00;98527.31;4950331;28;20043;-76
2023/03/10 07:45:49;;;;;;;13.02;4.90;;;;;;;9.00;100.00;98531.31;4950260;28;20098;-76
2023/03/10 07:48:14;;;;;;;10.57;4.55;;;;;;;9.13;100.00;98534.44;4952009;28;20027;-77
2023/03/10 07:50:40;;;;;;;12.07;4.70;;;;;;;9.24;100.00;98533.34;4950681;29;20042;-76
2023/03/10 07:53:05;;;;;;;15.52;4.03;;;;;;;9.29;100.00;98533.72;4934585;29;20061;-77
2023/03/10 07:55:30;;;;;;;13.05;3.28;;;;;;;9.31;100.00;98525.41;4950789;29;20036;-77
2023/03/10 07:57:59;;;;;;;11.70;3.33;;;;;;;9.31;100.00;98530.81;4950174;28;20094;-77
2023/03/10 08:00:25;;;;;;;12.38;3.13;;;;;;;9.30;100.00;98524.56;4949149;29;20101;-77
2023/03/10 08:02:50;;;;;;;12.23;2.97;;;;;;;9.31;100.00;98523.53;4949832;28;20043;-77
2023/03/10 08:05:15;;;;;;;13.00;2.45;;;;;;;9.35;100.00;98524.91;4951335;28;20121;-77
2023/03/10 08:07:42;;;;;;;11.02;2.92;;;;;;;9.45;100.00;98524.81;4951416;28;20046;-78
2023/03/10 08:10:08;;;;;;;12.20;2.97;;;;;;;9.51;100.00;98516.00;4951510;29;20082;-77
2023/03/10 08:12:34;;;;;;;10.77;2.55;;;;;;;9.58;100.00;98533.34;4951432;29;20073;-78
2023/03/10 08:15:00;;;;;;;9.05;2.40;;;;;;;9.74;100.00;98523.56;4949535;29;20067;-77
2023/03/10 08:17:29;;;;;;;8.27;2.15;;;;;;;9.85;100.00;98531.44;4948917;28;20061;-78
2023/03/10 08:19:58;;;;;;;8.32;2.35;;;;;;;10.00;100.00;98529.81;4949783;29;20039;-78
2023/03/10 08:22:24;;;;;;;10.50;2.20;;;;;;;10.20;100.00;98530.38;4951920;29;20359;-77
2023/03/10 08:24:50;;;;;;;9.57;1.88;;;;;;;10.27;100.00;98530.59;4950996;29;20050;-78
2023/03/10 08:27:15;;;;;;;7.07;2.03;;;;;;;10.31;100.00;98529.25;4950744;28;20046;-77
2023/03/10 08:29:41;;;;;;;9.80;1.92;;;;;;;10.34;100.00;98537.06;4951156;28;20447;-77
2023/03/10 08:32:06;;;;;;;11.23;1.95;;;;;;;10.37;100.00;98534.88;4951000;28;20193;-77
2023/03/10 08:34:35;;;;;;;14.38;2.30;;;;;;;10.39;100.00;98538.25;4934317;29;20043;-77
2023/03/10 08:37:01;;;;;;;8.00;2.17;;;;;;;10.37;100.00;98523.16;4950120;29;20031;-77
2023/03/10 08:39:27;;;;;;;5.90;1.90;;;;;;;10.34;100.00;98535.19;4934048;29;20130;-77
2023/03/10 08:41:54;;;;;;;8.10;1.88;;;;;;;10.29;100.00;98532.13;4950774;28;20392;-77
2023/03/10 08:44:19;;;;;;;8.57;2.03;;;;;;;10.26;100.00;98537.91;4948816;29;20542;-77
2023/03/10 08:46:47;;;;;;;6.15;1.70;;;;;;;10.22;100.00;98533.78;4943579;29;20031;-77
2023/03/10 08:49:14;;;;;;;11.40;2.05;;;;;;;10.23;100.00;98527.31;4950896;28;20039;-77
2023/03/10 08:51:41;;;;;;;7.38;1.95;;;;;;;10.32;100.00;98536.38;4950827;29;20039;-77
2023/03/10 08:54:07;;;;;;;8.15;1.80;;;;;;;10.47;100.00;98540.16;4950915;28;20073;-77
2023/03/10 08:56:33;;;;;;;9.77;2.95;;;;;;;10.63;100.00;98537.47;4950895;29;20495;-77
2023/03/10 08:58:59;;;;;;;12.95;2.40;;;;;;;10.74;100.00;98533.56;4951128;28;20058;-76
2023/03/10 09:01:27;;;;;;;12.43;2.53;;;;;;;10.88;100.00;98540.19;4948939;28;20043;-76
2023/03/10 09:03:52;;;;;;;11.60;2.20;;;;;;;10.92;100.00;98533.41;4957092;28;20078;-77
2023/03/10 09:06:18;;;;;;;6.25;1.95;;;;;;;10.92;100.00;98531.53;4969804;28;20493;-77
2023/03/10 09:08:44;;;;;;;5.75;2.42;;;;;;;10.87;100.00;98528.47;4948265;29;20043;-76
2023/03/10 09:11:14;;;;;;;6.85;1.77;;;;;;;10.83;100.00;98528.97;4950784;29;20043;-77
2023/03/10 09:13:39;;;;;;;8.48;1.75;;;;;;;10.71;100.00;98529.28;4949261;28;20398;-77
2023/03/10 09:16:05;;;;;;;9.57;2.13;;;;;;;10.62;100.00;98535.75;4950265;28;20102;-77
2023/03/10 09:18:30;;;;;;;7.88;1.60;;;;;;;10.52;100.00;98520.63;4951089;28;20039;-77
2023/03/10 09:20:56;;;;;;;10.65;2.20;;;;;;;10.53;100.00;98515.00;4951044;29;20494;-77
2023/03/10 09:23:21;;;;;;;6.63;1.60;;;;;;;10.60;100.00;98521.47;4949368;29;20219;-77
2023/03/10 09:25:47;;;;;;;9.73;2.58;;;;;;;10.65;100.00;98524.53;4949050;28;20506;-77
2023/03/10 09:28:12;;;;;;;6.57;2.20;;;;;;;10.68;100.00;98526.09;4950589;29;20054;-77
2023/03/10 09:30:40;;;;;;;8.23;2.17;;;;;;;10.69;100.00;98531.34;4932894;29;20094;-77
2023/03/10 09:33:07;;;;;;;11.80;2.03;;;;;;;10.68;100.00;98529.66;4947649;29;20182;-77
2023/03/10 09:35:33;;;;;;;7.85;2.08;;;;;;;10.65;100.00;98523.69;4949032;29;20050;-77
2023/03/10 09:37:59;;;;;;;10.82;2.03;;;;;;;10.57;100.00;98521.81;4949288;28;20039;-77
2023/03/10 09:40:24;;;;;;;7.55;2.05;;;;;;;10.49;100.00;98524.50;4949147;29;20038;-77
2023/03/10 09:42:59;;;;;;;12.32;2.15;;;;;;;10.45;100.00;98532.16;4948935;29;20162;-77
2023/03/10 09:45:59;;;;;;;6.05;1.83;;;;;;;10.35;100.00;98530.59;4949926;28;20487;-77
2023/03/10 09:48:33;;;;;;;9.88;2.42;;;;;;;10.25;100.00;98532.63;4949993;28;20039;-77
2023/03/10 09:51:04;;;;;;;12.60;2.97;;;;;;;10.25;100.00;98536.19;4949591;28;20444;-77
2023/03/10 09:53:48;;;;;;;8.77;2.33;;;;;;;10.26;100.00;98535.19;4954311;29;20057;-77
2023/03/10 09:56:19;;;;;;;7.68;1.73;;;;;;;10.24;100.00;98542.63;4953747;28;20047;-77
2023/03/10 09:58:48;;;;;;;9.13;1.97;;;;;;;10.28;100.00;98545.88;4953584;28;20047;-77
2023/03/10 10:01:24;;;;;;;6.35;1.67;;;;;;;10.32;100.00;98536.38;4953320;28;20797;-77
2023/03/10 10:03:55;;;;;;;10.57;2.10;;;;;;;10.35;100.00;98550.50;4953586;28;20470;-77
2023/03/10 10:06:28;;;;;;;5.33;1.77;;;;;;;10.36;100.00;98551.34;4952147;29;20035;-77
2023/03/10 10:09:01;;;;;;;7.75;1.63;;;;;;;10.39;100.00;98556.44;4953653;29;20046;-77
2023/03/10 10:11:26;;;;;;;12.88;2.35;;;;;;;10.39;100.00;98556.44;4954090;29;20491;-77
2023/03/10 10:14:18;;;;;;;6.68;1.80;;;;;;;10.39;100.00;98553.72;4952051;28;20030;-76
2023/03/10 10:17:01;;;;;;;8.02;1.70;;;;;;;10.35;100.00;98560.50;4952986;28;20042;-78
2023/03/10 10:19:27;;;;;;;4.95;1.67;;;;;;;10.40;100.00;98559.00;4951836;28;20035;-77
2023/03/10 10:22:06;;;;;;;10.57;1.90;;;;;;;10.43;100.00;98565.97;4952160;28;20060;-77
2023/03/10 10:24:32;;;;;;;9.73;2.50;;;;;;;10.31;100.00;98549.13;4951287;29;20518;-77
2023/03/10 10:26:57;;;;;;;5.68;1.60;;;;;;;10.29;100.00;98566.59;4952359;29;20086;-77
2023/03/10 10:29:37;;;;;;;9.05;1.80;;;;;;;10.20;100.00;98571.13;4953572;29;20043;-78
2023/03/10 10:32:13;;;;;;;9.98;2.05;;;;;;;10.13;100.00;98567.38;4942816;29;20618;-78
2023/03/10 10:34:41;;;;;;;8.73;2.70;;;;;;;10.08;100.00;98562.44;4937490;29;20042;-78
2023/03/10 10:37:22;;;;;;;4.68;1.70;;;;;;;10.10;100.00;98563.13;4952236;29;20035;-77
2023/03/10 10:39:49;;;;;;;6.22;1.92;;;;;;;10.08;100.00;98559.72;4952000;29;20039;-77
2023/03/10 10:42:24;;;;;;;5.78;2.10;;;;;;;10.07;100.00;98560.75;4951618;28;20033;-77
2023/03/10 10:44:56;;;;;;;12.52;2.83;;;;;;;10.03;100.00;98553.09;4952808;28;20487;-76
2023/03/10 10:47:32;;;;;;;8.40;2.13;;;;;;;10.01;100.00;98558.66;4951682;28;20055;-77
2023/03/10 10:50:08;;;;;;;7.20;2.00;;;;;;;10.01;100.00;98549.66;4920312;29;20149;-77
2023/03/10 10:52:33;;;;;;;8.35;2.22;;;;;;;10.01;100.00;98542.38;4952857;28;20043;-77
2023/03/10 10:55:01;;;;;;;12.02;2.17;;;;;;;10.05;100.00;98538.31;4952155;29;20399;-77
2023/03/10 10:57:32;;;;;;;6.43;2.30;;;;;;;10.06;100.00;98533.72;4920581;29;20046;-76
2023/03/10 11:00:17;;;;;;;6.72;1.92;;;;;;;10.14;100.00;98537.31;4952999;28;20043;-76
2023/03/10 11:02:43;;;;;;;6.15;2.22;;;;;;;10.13;100.00;98529.34;4951440;28;20051;-77
2023/03/10 11:05:11;;;;;;;11.95;2.60;;;;;;;10.12;100.00;98535.81;4952471;28;20400;-77
2023/03/10 11:07:37;;;;;;;6.05;2.28;;;;;;;10.11;100.00;98534.91;4952973;29;20141;-76
2023/03/10 11:10:13;;;;;;;8.82;2.40;;;;;;;10.09;100.00;98528.81;4951342;28;20119;-76
2023/03/10 11:12:54;;;;;;;13.48;3.17;;;;;;;10.05;100.00;98532.03;4952631;29;20035;-76
2023/03/10 11:15:31;;;;;;;8.77;2.90;;;;;;;10.00;100.00;98537.09;4952521;28;20117;-76
2023/03/10 11:18:17;;;;;;;6.05;2.28;;;;;;;9.94;100.00;98528.59;4952320;28;20122;-76
2023/03/10 11:21:02;;;;;;;10.55;3.85;;;;;;;9.87;100.00;98522.13;4952468;29;20538;-76
2023/03/10 11:23:44;;;;;;;9.82;2.58;;;;;;;9.83;100.00;98523.44;4953029;29;20039;-76
2023/03/10 11:26:21;;;;;;;5.72;2.00;;;;;;;9.78;100.00;98520.38;4952208;28;20110;-76
2023/03/10 11:28:58;;;;;;;11.32;2.05;;;;;;;9.74;100.00;98527.16;4950924;29;20035;-76
2023/03/10 11:31:35;;;;;;;6.10;2.00;;;;;;;9.70;100.00;98510.34;4951960;28;20339;-76